sensor_id;sensor_type;location;lat;lon;timestamp;pressure;altitude;pressure_sealevel;temperature;humidity
36284;BME280;56085;48.910;9.478;2023-05-21T00:02:02;97632.63;;;40.43;15.72
36284;BME280;56085;48.910;9.478;2023-05-21T00:04:28;97622.47;;;40.75;15.54
36284;BME280;56085;48.910;9.478;2023-05-21T00:06:55;97619.88;;;40.54;15.58
36284;BME280;56085;48.910;9.478;2023-05-21T00:09:21;97600.28;;;40.70;15.84
36284;BME280;56085;48.910;9.478;2023-05-21T00:11:46;97607.72;;;40.47;15.60
36284;BME280;56085;48.910;9.478;2023-05-21T00:14:11;97623.09;;;40.09;15.71
36284;BME280;56085;48.910;9.478;2023-05-21T00:16:36;97602.25;;;40.11;15.77
36284;BME280;56085;48.910;9.478;2023-05-21T00:19:02;97618.38;;;40.37;15.62
36284;BME280;56085;48.910;9.478;2023-05-21T00:21:27;97600.22;;;40.37;15.58
36284;BME280;56085;48.910;9.478;2023-05-21T00:23:53;97621.69;;;40.34;15.67
36284;BME280;56085;48.910;9.478;2023-05-21T00:26:20;97616.47;;;40.32;15.66
36284;BME280;56085;48.910;9.478;2023-05-21T00:28:46;97617.06;;;40.30;15.74
36284;BME280;56085;48.910;9.478;2023-05-21T00:31:11;97628.50;;;39.97;15.92
36284;BME280;56085;48.910;9.478;2023-05-21T00:33:36;97610.31;;;40.20;16.03
36284;BME280;56085;48.910;9.478;2023-05-21T00:36:02;97601.06;;;40.14;16.01
36284;BME280;56085;48.910;9.478;2023-05-21T00:38:27;97605.13;;;40.11;15.69
36284;BME280;56085;48.910;9.478;2023-05-21T00:40:52;97599.44;;;40.36;15.94
36284;BME280;56085;48.910;9.478;2023-05-21T00:43:18;97591.75;;;40.31;16.12
36284;BME280;56085;48.910;9.478;2023-05-21T00:45:43;97598.66;;;40.43;16.14
36284;BME280;56085;48.910;9.478;2023-05-21T00:48:11;97676.34;;;39.91;16.07
36284;BME280;56085;48.910;9.478;2023-05-21T00:50:37;97583.16;;;40.00;16.17
36284;BME280;56085;48.910;9.478;2023-05-21T00:53:06;97640.47;;;39.63;16.12
36284;BME280;56085;48.910;9.478;2023-05-21T00:55:36;97653.78;;;39.43;16.17
36284;BME280;56085;48.910;9.478;2023-05-21T00:58:01;97573.78;;;39.61;16.38
36284;BME280;56085;48.910;9.478;2023-05-21T01:00:30;97621.41;;;39.60;16.11
36284;BME280;56085;48.910;9.478;2023-05-21T01:02:57;97593.44;;;39.62;16.21
36284;BME280;56085;48.910;9.478;2023-05-21T01:05:22;97579.75;;;39.48;15.98
36284;BME280;56085;48.910;9.478;2023-05-21T01:07:47;97579.56;;;39.61;16.32
36284;BME280;56085;48.910;9.478;2023-05-21T01:10:13;97576.28;;;39.72;16.42
36284;BME280;56085;48.910;9.478;2023-05-21T01:12:41;97734.81;;;40.05;16.20
36284;BME280;56085;48.910;9.478;2023-05-21T01:15:08;97600.75;;;39.87;16.33
36284;BME280;56085;48.910;9.478;2023-05-21T01:17:35;97597.28;;;39.88;16.20
36284;BME280;56085;48.910;9.478;2023-05-21T01:20:01;97576.06;;;39.47;16.27
36284;BME280;56085;48.910;9.478;2023-05-21T01:22:34;97673.28;;;39.81;16.65
36284;BME280;56085;48.910;9.478;2023-05-21T01:24:59;97567.59;;;39.57;16.56
36284;BME280;56085;48.910;9.478;2023-05-21T01:27:26;97572.63;;;39.56;16.49
36284;BME280;56085;48.910;9.478;2023-05-21T01:29:52;97587.66;;;39.55;16.61
36284;BME280;56085;48.910;9.478;2023-05-21T01:32:28;97733.44;;;40.21;16.29
36284;BME280;56085;48.910;9.478;2023-05-21T01:35:09;97741.53;;;40.00;16.25
36284;BME280;56085;48.910;9.478;2023-05-21T01:37:52;97741.78;;;40.02;16.32
36284;BME280;56085;48.910;9.478;2023-05-21T01:40:25;97722.06;;;39.77;16.30
36284;BME280;56085;48.910;9.478;2023-05-21T01:42:53;97593.22;;;39.45;16.71
36284;BME280;56085;48.910;9.478;2023-05-21T01:45:21;97666.47;;;39.40;16.50
36284;BME280;56085;48.910;9.478;2023-05-21T01:47:50;97714.47;;;39.27;16.57
36284;BME280;56085;48.910;9.478;2023-05-21T01:50:17;97587.84;;;39.26;16.50
36284;BME280;56085;48.910;9.478;2023-05-21T01:52:51;97745.19;;;39.92;16.47
36284;BME280;56085;48.910;9.478;2023-05-21T01:55:17;97588.78;;;39.36;16.74
36284;BME280;56085;48.910;9.478;2023-05-21T01:57:43;97570.28;;;39.55;16.55
36284;BME280;56085;48.910;9.478;2023-05-21T02:00:09;97588.22;;;39.53;16.88
36284;BME280;56085;48.910;9.478;2023-05-21T02:02:34;97581.28;;;39.79;16.61
36284;BME280;56085;48.910;9.478;2023-05-21T02:05:00;97564.50;;;39.62;16.64
36284;BME280;56085;48.910;9.478;2023-05-21T02:07:25;97562.88;;;40.08;16.77
36284;BME280;56085;48.910;9.478;2023-05-21T02:09:52;97577.78;;;40.04;16.68
36284;BME280;56085;48.910;9.478;2023-05-21T02:12:18;97556.75;;;39.80;16.54
36284;BME280;56085;48.910;9.478;2023-05-21T02:14:43;97562.59;;;39.65;16.68
36284;BME280;56085;48.910;9.478;2023-05-21T02:17:10;97567.81;;;39.36;16.78
36284;BME280;56085;48.910;9.478;2023-05-21T02:19:35;97576.09;;;39.32;16.64
36284;BME280;56085;48.910;9.478;2023-05-21T02:22:01;97569.13;;;39.42;16.95
36284;BME280;56085;48.910;9.478;2023-05-21T02:24:26;97563.56;;;39.68;17.08
36284;BME280;56085;48.910;9.478;2023-05-21T02:26:51;97562.00;;;39.43;16.93
36284;BME280;56085;48.910;9.478;2023-05-21T02:29:17;97558.53;;;39.22;16.87
36284;BME280;56085;48.910;9.478;2023-05-21T02:31:42;97568.19;;;39.24;16.86
36284;BME280;56085;48.910;9.478;2023-05-21T02:34:07;97557.56;;;39.35;16.77
36284;BME280;56085;48.910;9.478;2023-05-21T02:36:32;97556.81;;;39.65;16.76
36284;BME280;56085;48.910;9.478;2023-05-21T02:39:00;97552.16;;;39.54;17.04
36284;BME280;56085;48.910;9.478;2023-05-21T02:41:25;97557.41;;;39.33;16.73
36284;BME280;56085;48.910;9.478;2023-05-21T02:43:51;97562.97;;;39.23;16.75
36284;BME280;56085;48.910;9.478;2023-05-21T02:46:16;97565.69;;;39.28;17.05
36284;BME280;56085;48.910;9.478;2023-05-21T02:48:41;97561.63;;;39.55;16.96
36284;BME280;56085;48.910;9.478;2023-05-21T02:51:06;97563.16;;;39.48;17.07
36284;BME280;56085;48.910;9.478;2023-05-21T02:53:32;97555.47;;;39.20;16.82
36284;BME280;56085;48.910;9.478;2023-05-21T02:55:57;97548.31;;;39.36;16.89
36284;BME280;56085;48.910;9.478;2023-05-21T02:58:22;97541.00;;;39.43;17.01
36284;BME280;56085;48.910;9.478;2023-05-21T03:00:49;97556.78;;;39.57;16.86
36284;BME280;56085;48.910;9.478;2023-05-21T03:03:14;97553.13;;;39.49;16.91
36284;BME280;56085;48.910;9.478;2023-05-21T03:05:40;97560.03;;;39.07;16.92
36284;BME280;56085;48.910;9.478;2023-05-21T03:08:05;97555.03;;;39.08;17.17
36284;BME280;56085;48.910;9.478;2023-05-21T03:10:30;97559.13;;;39.20;16.97
36284;BME280;56085;48.910;9.478;2023-05-21T03:12:56;97563.75;;;39.39;16.85
36284;BME280;56085;48.910;9.478;2023-05-21T03:15:21;97544.66;;;39.67;16.89
36284;BME280;56085;48.910;9.478;2023-05-21T03:17:48;97538.66;;;39.65;16.92
36284;BME280;56085;48.910;9.478;2023-05-21T03:20:14;97562.94;;;39.00;16.81
36284;BME280;56085;48.910;9.478;2023-05-21T03:22:42;97555.06;;;39.47;16.92
36284;BME280;56085;48.910;9.478;2023-05-21T03:25:09;97604.59;;;39.27;16.93
36284;BME280;56085;48.910;9.478;2023-05-21T03:27:34;97542.53;;;39.36;17.02
36284;BME280;56085;48.910;9.478;2023-05-21T03:30:00;97539.25;;;39.32;17.06
36284;BME280;56085;48.910;9.478;2023-05-21T03:32:26;97556.22;;;39.20;17.12
36284;BME280;56085;48.910;9.478;2023-05-21T03:34:51;97549.28;;;39.23;17.31
36284;BME280;56085;48.910;9.478;2023-05-21T03:37:16;97554.69;;;39.35;17.13
36284;BME280;56085;48.910;9.478;2023-05-21T03:39:41;97557.00;;;39.21;17.17
36284;BME280;56085;48.910;9.478;2023-05-21T03:42:06;97536.16;;;39.22;17.06
36284;BME280;56085;48.910;9.478;2023-05-21T03:44:32;97540.63;;;39.23;17.06
36284;BME280;56085;48.910;9.478;2023-05-21T03:46:57;97535.81;;;39.26;17.33
36284;BME280;56085;48.910;9.478;2023-05-21T03:49:24;97588.03;;;39.36;17.15
36284;BME280;56085;48.910;9.478;2023-05-21T03:51:49;97557.78;;;39.21;17.05
36284;BME280;56085;48.910;9.478;2023-05-21T03:54:14;97556.22;;;39.36;17.04
36284;BME280;56085;48.910;9.478;2023-05-21T03:56:40;97555.47;;;39.20;17.21
36284;BME280;56085;48.910;9.478;2023-05-21T03:59:05;97553.72;;;39.48;17.04
36284;BME280;56085;48.910;9.478;2023-05-21T04:01:30;97547.38;;;39.26;17.00
36284;BME280;56085;48.910;9.478;2023-05-21T04:03:57;97540.38;;;39.06;17.48
36284;BME280;56085;48.910;9.478;2023-05-21T04:06:22;97553.34;;;39.13;17.36
36284;BME280;56085;48.910;9.478;2023-05-21T04:08:47;97573.00;;;39.37;17.02
36284;BME280;56085;48.910;9.478;2023-05-21T04:11:12;97552.56;;;39.51;17.24
36284;BME280;56085;48.910;9.478;2023-05-21T04:13:38;97561.41;;;39.30;17.22
36284;BME280;56085;48.910;9.478;2023-05-21T04:16:03;97579.50;;;39.07;17.27
36284;BME280;56085;48.910;9.478;2023-05-21T04:18:28;97571.44;;;39.36;17.36
36284;BME280;56085;48.910;9.478;2023-05-21T04:20:53;97569.69;;;39.10;17.17
36284;BME280;56085;48.910;9.478;2023-05-21T04:23:19;97580.06;;;38.90;17.12
36284;BME280;56085;48.910;9.478;2023-05-21T04:25:47;97564.47;;;39.01;17.34
36284;BME280;56085;48.910;9.478;2023-05-21T04:28:14;97564.44;;;38.85;17.51
36284;BME280;56085;48.910;9.478;2023-05-21T04:30:45;97648.69;;;39.05;17.29
36284;BME280;56085;48.910;9.478;2023-05-21T04:33:11;97594.13;;;38.93;17.08
36284;BME280;56085;48.910;9.478;2023-05-21T04:35:36;97586.81;;;38.92;17.12
36284;BME280;56085;48.910;9.478;2023-05-21T04:38:01;97582.00;;;39.03;17.34
36284;BME280;56085;48.910;9.478;2023-05-21T04:40:29;97592.09;;;39.33;17.18
36284;BME280;56085;48.910;9.478;2023-05-21T04:42:54;97596.69;;;39.51;17.31
36284;BME280;56085;48.910;9.478;2023-05-21T04:45:20;97594.97;;;39.25;17.23
36284;BME280;56085;48.910;9.478;2023-05-21T04:47:48;97599.97;;;39.32;17.24
36284;BME280;56085;48.910;9.478;2023-05-21T04:50:13;97587.44;;;39.14;17.32
36284;BME280;56085;48.910;9.478;2023-05-21T04:52:39;97603.44;;;39.23;17.20
36284;BME280;56085;48.910;9.478;2023-05-21T04:55:06;97651.63;;;39.28;17.49
36284;BME280;56085;48.910;9.478;2023-05-21T04:57:31;97587.78;;;39.03;17.27
36284;BME280;56085;48.910;9.478;2023-05-21T04:59:56;97589.19;;;39.33;16.84
36284;BME280;56085;48.910;9.478;2023-05-21T05:02:21;97588.03;;;39.36;17.26
36284;BME280;56085;48.910;9.478;2023-05-21T05:04:47;97599.41;;;39.18;17.51
36284;BME280;56085;48.910;9.478;2023-05-21T05:07:12;97592.09;;;39.33;17.24
36284;BME280;56085;48.910;9.478;2023-05-21T05:09:37;97599.22;;;39.32;17.29
36284;BME280;56085;48.910;9.478;2023-05-21T05:12:03;97587.47;;;39.60;17.27
36284;BME280;56085;48.910;9.478;2023-05-21T05:14:28;97577.56;;;39.94;17.25
36284;BME280;56085;48.910;9.478;2023-05-21T05:16:54;97594.56;;;40.06;17.12
36284;BME280;56085;48.910;9.478;2023-05-21T05:19:23;97582.78;;;39.80;17.21
36284;BME280;56085;48.910;9.478;2023-05-21T05:21:48;97586.03;;;40.00;17.18
36284;BME280;56085;48.910;9.478;2023-05-21T05:24:14;97574.25;;;40.13;17.45
36284;BME280;56085;48.910;9.478;2023-05-21T05:26:40;97594.72;;;40.00;17.40
36284;BME280;56085;48.910;9.478;2023-05-21T05:29:05;97580.34;;;40.33;17.16
36284;BME280;56085;48.910;9.478;2023-05-21T05:31:30;97582.72;;;40.19;17.09
36284;BME280;56085;48.910;9.478;2023-05-21T05:33:55;97579.75;;;40.42;17.08
36284;BME280;56085;48.910;9.478;2023-05-21T05:36:22;97586.59;;;40.22;16.96
36284;BME280;56085;48.910;9.478;2023-05-21T05:38:48;97575.81;;;39.99;16.99
36284;BME280;56085;48.910;9.478;2023-05-21T05:41:13;97580.75;;;40.29;17.07
36284;BME280;56085;48.910;9.478;2023-05-21T05:43:38;97599.41;;;40.92;17.12
36284;BME280;56085;48.910;9.478;2023-05-21T05:46:04;97571.09;;;41.08;16.99
36284;BME280;56085;48.910;9.478;2023-05-21T05:48:29;97569.63;;;40.99;17.28
36284;BME280;56085;48.910;9.478;2023-05-21T05:50:55;97585.53;;;40.91;16.88
36284;BME280;56085;48.910;9.478;2023-05-21T05:53:21;97577.19;;;40.95;16.98
36284;BME280;56085;48.910;9.478;2023-05-21T05:55:46;97570.91;;;41.06;16.72
36284;BME280;56085;48.910;9.478;2023-05-21T05:58:11;97582.16;;;41.27;16.92
36284;BME280;56085;48.910;9.478;2023-05-21T06:00:37;97574.69;;;41.67;16.70
36284;BME280;56085;48.910;9.478;2023-05-21T06:03:02;97585.22;;;41.55;16.88
36284;BME280;56085;48.910;9.478;2023-05-21T06:05:27;97563.53;;;41.98;16.65
36284;BME280;56085;48.910;9.478;2023-05-21T06:07:53;97581.03;;;41.91;16.57
36284;BME280;56085;48.910;9.478;2023-05-21T06:10:18;97588.59;;;41.68;16.57
36284;BME280;56085;48.910;9.478;2023-05-21T06:12:44;97594.41;;;41.68;16.18
36284;BME280;56085;48.910;9.478;2023-05-21T06:15:10;97577.88;;;41.79;16.63
36284;BME280;56085;48.910;9.478;2023-05-21T06:17:35;97574.28;;;41.45;16.40
36284;BME280;56085;48.910;9.478;2023-05-21T06:20:00;97583.25;;;41.40;16.53
36284;BME280;56085;48.910;9.478;2023-05-21T06:22:25;97586.97;;;41.58;16.64
36284;BME280;56085;48.910;9.478;2023-05-21T06:24:51;97610.19;;;40.99;16.50
36284;BME280;56085;48.910;9.478;2023-05-21T06:27:16;97589.78;;;41.15;16.45
36284;BME280;56085;48.910;9.478;2023-05-21T06:29:41;97586.72;;;41.38;16.47
36284;BME280;56085;48.910;9.478;2023-05-21T06:32:07;97639.38;;;41.34;16.58
36284;BME280;56085;48.910;9.478;2023-05-21T06:34:32;97594.00;;;41.47;16.31
36284;BME280;56085;48.910;9.478;2023-05-21T06:36:58;97591.38;;;41.84;16.39
36284;BME280;56085;48.910;9.478;2023-05-21T06:39:23;97584.34;;;41.69;16.23
36284;BME280;56085;48.910;9.478;2023-05-21T06:41:48;97596.66;;;41.95;16.19
36284;BME280;56085;48.910;9.478;2023-05-21T06:44:14;97591.91;;;42.25;16.38
36284;BME280;56085;48.910;9.478;2023-05-21T06:46:40;97581.38;;;42.65;16.28
36284;BME280;56085;48.910;9.478;2023-05-21T06:49:05;97579.41;;;42.50;16.27
36284;BME280;56085;48.910;9.478;2023-05-21T06:51:31;97595.56;;;42.61;16.23
36284;BME280;56085;48.910;9.478;2023-05-21T06:53:56;97591.78;;;42.95;16.14
36284;BME280;56085;48.910;9.478;2023-05-21T06:56:21;97593.75;;;42.93;15.96
36284;BME280;56085;48.910;9.478;2023-05-21T06:58:47;97609.56;;;42.99;16.03
36284;BME280;56085;48.910;9.478;2023-05-21T07:01:12;97597.41;;;43.57;15.77
36284;BME280;56085;48.910;9.478;2023-05-21T07:03:37;97593.81;;;43.39;15.61
36284;BME280;56085;48.910;9.478;2023-05-21T07:06:03;97595.31;;;43.31;15.51
36284;BME280;56085;48.910;9.478;2023-05-21T07:08:28;97591.63;;;43.20;15.41
36284;BME280;56085;48.910;9.478;2023-05-21T07:10:53;97598.59;;;43.07;15.42
36284;BME280;56085;48.910;9.478;2023-05-21T07:13:20;97598.78;;;43.47;15.58
36284;BME280;56085;48.910;9.478;2023-05-21T07:15:45;97597.56;;;43.50;15.27
36284;BME280;56085;48.910;9.478;2023-05-21T07:18:11;97583.53;;;43.75;15.30
36284;BME280;56085;48.910;9.478;2023-05-21T07:20:37;97590.72;;;43.74;14.89
36284;BME280;56085;48.910;9.478;2023-05-21T07:23:02;97602.50;;;43.20;14.94
36284;BME280;56085;48.910;9.478;2023-05-21T07:25:27;97602.63;;;43.49;14.98
36284;BME280;56085;48.910;9.478;2023-05-21T07:27:52;97612.53;;;43.93;14.97
36284;BME280;56085;48.910;9.478;2023-05-21T07:30:18;97602.72;;;43.88;14.76
36284;BME280;56085;48.910;9.478;2023-05-21T07:32:43;97589.09;;;44.10;14.74
36284;BME280;56085;48.910;9.478;2023-05-21T07:35:09;97595.69;;;44.21;14.75
36284;BME280;56085;48.910;9.478;2023-05-21T07:37:34;97586.34;;;44.52;14.10
36284;BME280;56085;48.910;9.478;2023-05-21T07:40:00;97573.47;;;44.45;14.60
36284;BME280;56085;48.910;9.478;2023-05-21T07:42:25;97600.00;;;44.30;14.24
36284;BME280;56085;48.910;9.478;2023-05-21T07:44:50;97590.66;;;44.41;14.30
36284;BME280;56085;48.910;9.478;2023-05-21T07:47:16;97593.66;;;44.62;14.24
36284;BME280;56085;48.910;9.478;2023-05-21T07:49:41;97590.91;;;44.74;14.15
36284;BME280;56085;48.910;9.478;2023-05-21T07:52:06;97576.63;;;44.78;13.37
36284;BME280;56085;48.910;9.478;2023-05-21T07:54:32;97598.69;;;44.91;13.81
36284;BME280;56085;48.910;9.478;2023-05-21T07:56:57;97590.53;;;45.09;13.64
36284;BME280;56085;48.910;9.478;2023-05-21T07:59:24;97631.09;;;44.86;13.72
36284;BME280;56085;48.910;9.478;2023-05-21T08:01:49;97591.53;;;44.63;13.46
36284;BME280;56085;48.910;9.478;2023-05-21T08:04:14;97611.28;;;44.94;13.67
36284;BME280;56085;48.910;9.478;2023-05-21T08:06:39;97586.28;;;45.32;13.34
36284;BME280;56085;48.910;9.478;2023-05-21T08:09:05;97596.53;;;45.43;13.64
36284;BME280;56085;48.910;9.478;2023-05-21T08:11:31;97610.50;;;45.44;13.40
36284;BME280;56085;48.910;9.478;2023-05-21T08:13:57;97608.09;;;45.31;13.12
36284;BME280;56085;48.910;9.478;2023-05-21T08:16:22;97605.13;;;45.72;13.19
36284;BME280;56085;48.910;9.478;2023-05-21T08:18:50;97753.53;;;46.17;13.17
36284;BME280;56085;48.910;9.478;2023-05-21T08:21:16;97585.19;;;45.69;13.01
36284;BME280;56085;48.910;9.478;2023-05-21T08:23:42;97603.28;;;45.77;13.11
36284;BME280;56085;48.910;9.478;2023-05-21T08:26:07;97588.03;;;45.57;12.99
36284;BME280;56085;48.910;9.478;2023-05-21T08:28:33;97580.78;;;45.89;13.08
36284;BME280;56085;48.910;9.478;2023-05-21T08:31:00;97586.13;;;45.93;12.58
36284;BME280;56085;48.910;9.478;2023-05-21T08:33:26;97649.19;;;46.51;12.90
36284;BME280;56085;48.910;9.478;2023-05-21T08:35:51;97586.97;;;46.27;12.89
36284;BME280;56085;48.910;9.478;2023-05-21T08:38:16;97584.16;;;46.29;12.55
36284;BME280;56085;48.910;9.478;2023-05-21T08:40:42;97587.44;;;46.57;12.50
36284;BME280;56085;48.910;9.478;2023-05-21T08:43:07;97581.66;;;46.80;12.30
36284;BME280;56085;48.910;9.478;2023-05-21T08:45:41;97742.53;;;47.14;12.30
36284;BME280;56085;48.910;9.478;2023-05-21T08:48:09;97650.16;;;47.11;12.10
36284;BME280;56085;48.910;9.478;2023-05-21T08:50:35;97569.91;;;47.02;12.27
36284;BME280;56085;48.910;9.478;2023-05-21T08:53:01;97576.88;;;46.85;12.10
36284;BME280;56085;48.910;9.478;2023-05-21T08:55:26;97562.66;;;47.15;11.89
36284;BME280;56085;48.910;9.478;2023-05-21T08:57:53;97664.53;;;46.73;12.21
36284;BME280;56085;48.910;9.478;2023-05-21T09:00:18;97590.00;;;46.29;12.24
36284;BME280;56085;48.910;9.478;2023-05-21T09:02:49;97672.78;;;46.65;12.08
36284;BME280;56085;48.910;9.478;2023-05-21T09:05:15;97603.19;;;46.85;11.79
36284;BME280;56085;48.910;9.478;2023-05-21T09:07:48;97764.44;;;47.70;11.79
36284;BME280;56085;48.910;9.478;2023-05-21T09:10:17;97719.72;;;47.46;12.03
36284;BME280;56085;48.910;9.478;2023-05-21T09:12:44;97621.81;;;47.01;11.75
36284;BME280;56085;48.910;9.478;2023-05-21T09:15:09;97599.19;;;46.68;12.16
36284;BME280;56085;48.910;9.478;2023-05-21T09:17:35;97573.03;;;46.37;11.84
36284;BME280;56085;48.910;9.478;2023-05-21T09:20:12;97791.34;;;46.25;11.67
36284;BME280;56085;48.910;9.478;2023-05-21T09:25:05;97720.31;;;46.22;11.64
36284;BME280;56085;48.910;9.478;2023-05-21T09:27:32;97603.41;;;46.44;11.89
36284;BME280;56085;48.910;9.478;2023-05-21T09:29:57;97578.19;;;47.06;11.90
36284;BME280;56085;48.910;9.478;2023-05-21T09:32:22;97581.00;;;47.63;11.74
36284;BME280;56085;48.910;9.478;2023-05-21T09:34:48;97600.53;;;47.96;11.72
36284;BME280;56085;48.910;9.478;2023-05-21T09:37:14;97695.19;;;47.86;11.54
36284;BME280;56085;48.910;9.478;2023-05-21T09:39:40;97614.44;;;46.67;11.81
36284;BME280;56085;48.910;9.478;2023-05-21T09:42:06;97647.66;;;45.54;11.73
36284;BME280;56085;48.910;9.478;2023-05-21T09:44:31;97613.09;;;46.92;11.81
36284;BME280;56085;48.910;9.478;2023-05-21T09:46:57;97598.09;;;46.52;11.96
36284;BME280;56085;48.910;9.478;2023-05-21T09:49:24;97649.56;;;46.79;11.95
36284;BME280;56085;48.910;9.478;2023-05-21T09:51:56;97769.56;;;48.29;11.65
36284;BME280;56085;48.910;9.478;2023-05-21T09:54:30;97773.88;;;48.51;11.58
36284;BME280;56085;48.910;9.478;2023-05-21T09:56:55;97587.56;;;48.36;11.53
36284;BME280;56085;48.910;9.478;2023-05-21T09:59:20;97570.75;;;48.37;11.34
36284;BME280;56085;48.910;9.478;2023-05-21T10:01:49;97766.66;;;47.93;11.56
36284;BME280;56085;48.910;9.478;2023-05-21T10:04:16;97638.03;;;47.38;11.39
36284;BME280;56085;48.910;9.478;2023-05-21T10:06:42;97647.78;;;48.14;11.29
36284;BME280;56085;48.910;9.478;2023-05-21T10:09:11;97775.81;;;48.96;11.26
36284;BME280;56085;48.910;9.478;2023-05-21T10:11:38;97602.69;;;48.45;11.49
36284;BME280;56085;48.910;9.478;2023-05-21T10:14:08;97730.16;;;47.49;11.40
36284;BME280;56085;48.910;9.478;2023-05-21T10:16:38;97639.53;;;47.63;11.45
36284;BME280;56085;48.910;9.478;2023-05-21T10:19:05;97710.03;;;46.98;11.12
36284;BME280;56085;48.910;9.478;2023-05-21T10:21:35;97639.78;;;47.91;11.34
36284;BME280;56085;48.910;9.478;2023-05-21T10:24:01;97640.41;;;47.53;11.36
36284;BME280;56085;48.910;9.478;2023-05-21T10:26:27;97582.34;;;47.85;11.29
36284;BME280;56085;48.910;9.478;2023-05-21T10:28:55;97736.97;;;47.99;11.16
36284;BME280;56085;48.910;9.478;2023-05-21T10:31:21;97639.41;;;47.49;11.21
36284;BME280;56085;48.910;9.478;2023-05-21T10:33:47;97610.06;;;48.08;11.37
36284;BME280;56085;48.910;9.478;2023-05-21T10:36:15;97708.28;;;47.85;11.07
36284;BME280;56085;48.910;9.478;2023-05-21T10:38:42;97664.88;;;49.46;10.71
36284;BME280;56085;48.910;9.478;2023-05-21T10:41:08;97632.31;;;49.95;11.05
36284;BME280;56085;48.910;9.478;2023-05-21T10:43:43;97581.00;;;50.26;10.98
36284;BME280;56085;48.910;9.478;2023-05-21T10:46:25;97758.25;;;51.01;10.66
36284;BME280;56085;48.910;9.478;2023-05-21T10:52:00;97753.81;;;52.75;9.64
36284;BME280;56085;48.910;9.478;2023-05-21T10:57:49;97777.44;;;52.93;9.31
36284;BME280;56085;48.910;9.478;2023-05-21T11:00:19;97607.88;;;52.78;9.84
36284;BME280;56085;48.910;9.478;2023-05-21T11:02:46;97619.94;;;51.80;10.10
36284;BME280;56085;48.910;9.478;2023-05-21T11:05:12;97581.22;;;51.88;9.50
36284;BME280;56085;48.910;9.478;2023-05-21T11:07:55;97728.78;;;52.94;8.78
36284;BME280;56085;48.910;9.478;2023-05-21T11:10:37;97745.97;;;52.82;8.74
36284;BME280;56085;48.910;9.478;2023-05-21T11:13:14;97760.78;;;53.56;8.60
36284;BME280;56085;48.910;9.478;2023-05-21T11:18:21;97555.28;;;53.31;8.51
36284;BME280;56085;48.910;9.478;2023-05-21T11:20:50;97712.41;;;53.65;8.46
36284;BME280;56085;48.910;9.478;2023-05-21T11:23:15;97548.03;;;53.34;8.34
36284;BME280;56085;48.910;9.478;2023-05-21T11:25:41;97550.28;;;53.76;8.46
36284;BME280;56085;48.910;9.478;2023-05-21T11:28:06;97548.56;;;53.68;8.63
36284;BME280;56085;48.910;9.478;2023-05-21T11:30:33;97566.66;;;53.38;8.36
36284;BME280;56085;48.910;9.478;2023-05-21T11:38:09;97547.38;;;54.66;7.90
36284;BME280;56085;48.910;9.478;2023-05-21T11:40:34;97546.78;;;54.94;8.07
36284;BME280;56085;48.910;9.478;2023-05-21T11:42:59;97554.38;;;54.31;7.93
36284;BME280;56085;48.910;9.478;2023-05-21T11:45:30;97743.53;;;54.69;7.07
36284;BME280;56085;48.910;9.478;2023-05-21T11:47:56;97678.94;;;56.06;7.20
36284;BME280;56085;48.910;9.478;2023-05-21T11:50:21;97560.06;;;54.69;7.18
36284;BME280;56085;48.910;9.478;2023-05-21T11:52:48;97603.34;;;54.58;7.82
36284;BME280;56085;48.910;9.478;2023-05-21T11:55:13;97555.06;;;54.29;7.23
36284;BME280;56085;48.910;9.478;2023-05-21T11:57:42;97561.44;;;53.99;7.33
36284;BME280;56085;48.910;9.478;2023-05-21T12:00:15;97749.91;;;52.36;7.22
36284;BME280;56085;48.910;9.478;2023-05-21T12:02:45;97739.41;;;53.19;7.05
36284;BME280;56085;48.910;9.478;2023-05-21T12:05:11;97568.31;;;53.64;7.19
36284;BME280;56085;48.910;9.478;2023-05-21T12:07:36;97564.78;;;52.53;6.86
36284;BME280;56085;48.910;9.478;2023-05-21T12:10:02;97566.03;;;53.22;6.68
36284;BME280;56085;48.910;9.478;2023-05-21T12:12:28;97523.28;;;53.03;7.09
36284;BME280;56085;48.910;9.478;2023-05-21T12:14:54;97611.09;;;52.32;6.67
36284;BME280;56085;48.910;9.478;2023-05-21T12:17:23;97725.00;;;53.66;6.44
36284;BME280;56085;48.910;9.478;2023-05-21T12:19:53;97731.81;;;52.78;6.69
36284;BME280;56085;48.910;9.478;2023-05-21T12:22:19;97566.63;;;53.79;6.23
36284;BME280;56085;48.910;9.478;2023-05-21T12:24:44;97566.72;;;53.81;6.81
36284;BME280;56085;48.910;9.478;2023-05-21T12:27:11;97568.78;;;54.40;7.03
36284;BME280;56085;48.910;9.478;2023-05-21T12:29:38;97618.78;;;55.49;6.76
36284;BME280;56085;48.910;9.478;2023-05-21T12:32:06;97696.38;;;55.94;6.18
36284;BME280;56085;48.910;9.478;2023-05-21T12:34:44;97731.41;;;57.13;6.13
36284;BME280;56085;48.910;9.478;2023-05-21T12:37:21;97744.34;;;57.24;6.08
36284;BME280;56085;48.910;9.478;2023-05-21T12:39:49;97651.94;;;56.81;6.24
36284;BME280;56085;48.910;9.478;2023-05-21T12:42:15;97581.03;;;56.63;5.97
36284;BME280;56085;48.910;9.478;2023-05-21T12:44:45;97755.28;;;57.17;6.07
36284;BME280;56085;48.910;9.478;2023-05-21T12:47:11;97550.25;;;56.48;6.07
36284;BME280;56085;48.910;9.478;2023-05-21T12:49:42;97744.09;;;57.15;5.71
36284;BME280;56085;48.910;9.478;2023-05-21T12:52:18;97625.34;;;56.85;5.83
36284;BME280;56085;48.910;9.478;2023-05-21T12:54:48;97715.75;;;56.52;5.33
36284;BME280;56085;48.910;9.478;2023-05-21T12:57:23;97634.09;;;56.79;5.26
36284;BME280;56085;48.910;9.478;2023-05-21T12:59:54;97752.47;;;57.23;5.02
36284;BME280;56085;48.910;9.478;2023-05-21T13:02:26;97755.69;;;57.66;4.99
36284;BME280;56085;48.910;9.478;2023-05-21T13:05:00;97741.78;;;57.77;5.32
36284;BME280;56085;48.910;9.478;2023-05-21T13:07:27;97571.41;;;56.95;4.97
36284;BME280;56085;48.910;9.478;2023-05-21T13:09:54;97559.19;;;56.80;5.25
36284;BME280;56085;48.910;9.478;2023-05-21T13:12:21;97751.22;;;52.49;5.74
36284;BME280;56085;48.910;9.478;2023-05-21T13:14:50;97604.94;;;55.58;5.25
36284;BME280;56085;48.910;9.478;2023-05-21T13:17:17;97563.06;;;56.26;5.27